sensor_id;sensor_type;location;lat;lon;timestamp;temperature;humidity
913;DHT22;443;51.448;7.028;2022-07-05T00:00:22;20.60;90.60
913;DHT22;443;51.448;7.028;2022-07-05T00:02:49;20.60;91.00
913;DHT22;443;51.448;7.028;2022-07-05T00:05:17;20.60;91.00
913;DHT22;443;51.448;7.028;2022-07-05T00:07:44;20.60;90.70
913;DHT22;443;51.448;7.028;2022-07-05T00:10:11;20.60;90.70
913;DHT22;443;51.448;7.028;2022-07-05T00:12:38;20.50;91.00
913;DHT22;443;51.448;7.028;2022-07-05T00:15:06;20.60;90.80
913;DHT22;443;51.448;7.028;2022-07-05T00:17:33;20.60;90.70
913;DHT22;443;51.448;7.028;2022-07-05T00:19:59;20.60;90.80
913;DHT22;443;51.448;7.028;2022-07-05T00:22:28;20.60;90.70
913;DHT22;443;51.448;7.028;2022-07-05T00:24:55;20.60;90.80
913;DHT22;443;51.448;7.028;2022-07-05T00:27:22;20.60;90.70
913;DHT22;443;51.448;7.028;2022-07-05T00:29:48;20.60;90.80
913;DHT22;443;51.448;7.028;2022-07-05T00:32:15;20.50;90.80
913;DHT22;443;51.448;7.028;2022-07-05T00:34:42;20.60;90.90
913;DHT22;443;51.448;7.028;2022-07-05T00:37:09;20.60;90.80
913;DHT22;443;51.448;7.028;2022-07-05T00:39:37;20.50;90.80
913;DHT22;443;51.448;7.028;2022-07-05T00:42:04;20.50;90.70
913;DHT22;443;51.448;7.028;2022-07-05T00:44:32;20.50;90.60
913;DHT22;443;51.448;7.028;2022-07-05T00:47:00;20.50;90.70
913;DHT22;443;51.448;7.028;2022-07-05T00:49:28;20.50;90.80
913;DHT22;443;51.448;7.028;2022-07-05T00:51:55;20.50;90.70
913;DHT22;443;51.448;7.028;2022-07-05T00:54:22;20.50;90.80
913;DHT22;443;51.448;7.028;2022-07-05T00:56:50;20.40;91.00
913;DHT22;443;51.448;7.028;2022-07-05T00:59:18;20.50;90.70
913;DHT22;443;51.448;7.028;2022-07-05T01:01:45;20.50;90.80
913;DHT22;443;51.448;7.028;2022-07-05T01:04:12;20.40;91.20
913;DHT22;443;51.448;7.028;2022-07-05T01:06:40;20.40;90.90
913;DHT22;443;51.448;7.028;2022-07-05T01:09:10;20.50;91.30
913;DHT22;443;51.448;7.028;2022-07-05T01:11:39;20.40;90.70
913;DHT22;443;51.448;7.028;2022-07-05T01:14:08;20.40;90.60
913;DHT22;443;51.448;7.028;2022-07-05T01:16:37;20.40;90.80
913;DHT22;443;51.448;7.028;2022-07-05T01:19:05;20.40;91.00
913;DHT22;443;51.448;7.028;2022-07-05T01:21:33;20.40;91.00
913;DHT22;443;51.448;7.028;2022-07-05T01:24:05;20.40;91.00
913;DHT22;443;51.448;7.028;2022-07-05T01:26:32;20.40;90.80
913;DHT22;443;51.448;7.028;2022-07-05T01:28:59;20.40;90.90
913;DHT22;443;51.448;7.028;2022-07-05T01:31:26;20.40;91.00
913;DHT22;443;51.448;7.028;2022-07-05T01:33:53;20.40;91.00
913;DHT22;443;51.448;7.028;2022-07-05T01:36:20;20.40;91.00
913;DHT22;443;51.448;7.028;2022-07-05T01:38:47;20.40;90.90
913;DHT22;443;51.448;7.028;2022-07-05T01:41:17;20.40;90.60
913;DHT22;443;51.448;7.028;2022-07-05T01:43:43;20.40;91.10
913;DHT22;443;51.448;7.028;2022-07-05T01:46:11;20.40;91.10
913;DHT22;443;51.448;7.028;2022-07-05T01:48:39;20.40;91.40
913;DHT22;443;51.448;7.028;2022-07-05T01:51:13;20.40;91.20
913;DHT22;443;51.448;7.028;2022-07-05T01:53:43;20.40;91.10
913;DHT22;443;51.448;7.028;2022-07-05T01:56:11;20.40;91.30
913;DHT22;443;51.448;7.028;2022-07-05T01:58:39;20.40;91.00
913;DHT22;443;51.448;7.028;2022-07-05T02:01:06;20.40;91.00
913;DHT22;443;51.448;7.028;2022-07-05T02:03:33;20.30;91.00
913;DHT22;443;51.448;7.028;2022-07-05T02:06:00;20.40;91.00
913;DHT22;443;51.448;7.028;2022-07-05T02:08:29;20.40;91.00
913;DHT22;443;51.448;7.028;2022-07-05T02:10:56;20.40;90.90
913;DHT22;443;51.448;7.028;2022-07-05T02:13:23;20.40;91.00
913;DHT22;443;51.448;7.028;2022-07-05T02:15:51;20.40;90.90
913;DHT22;443;51.448;7.028;2022-07-05T02:18:18;20.30;91.10
913;DHT22;443;51.448;7.028;2022-07-05T02:20:45;20.40;90.90
913;DHT22;443;51.448;7.028;2022-07-05T02:23:12;20.30;90.80
913;DHT22;443;51.448;7.028;2022-07-05T02:25:38;20.30;91.20
913;DHT22;443;51.448;7.028;2022-07-05T02:28:05;20.40;91.10
913;DHT22;443;51.448;7.028;2022-07-05T02:30:32;20.30;90.80
913;DHT22;443;51.448;7.028;2022-07-05T02:33:00;20.40;91.10
913;DHT22;443;51.448;7.028;2022-07-05T02:35:27;20.40;91.00
913;DHT22;443;51.448;7.028;2022-07-05T02:37:54;20.40;91.10
913;DHT22;443;51.448;7.028;2022-07-05T02:40:21;20.30;90.90
913;DHT22;443;51.448;7.028;2022-07-05T02:42:48;20.30;90.40
913;DHT22;443;51.448;7.028;2022-07-05T02:45:15;20.30;91.10
913;DHT22;443;51.448;7.028;2022-07-05T02:47:42;20.30;90.90
913;DHT22;443;51.448;7.028;2022-07-05T02:50:11;20.30;90.80
913;DHT22;443;51.448;7.028;2022-07-05T02:52:38;20.20;90.90
913;DHT22;443;51.448;7.028;2022-07-05T02:55:06;20.30;90.80
913;DHT22;443;51.448;7.028;2022-07-05T02:57:33;20.30;91.00
913;DHT22;443;51.448;7.028;2022-07-05T03:00:00;20.30;91.30
913;DHT22;443;51.448;7.028;2022-07-05T03:02:27;20.30;91.30
913;DHT22;443;51.448;7.028;2022-07-05T03:04:53;20.30;91.10
913;DHT22;443;51.448;7.028;2022-07-05T03:07:22;20.30;91.30
913;DHT22;443;51.448;7.028;2022-07-05T03:09:48;20.20;91.00
913;DHT22;443;51.448;7.028;2022-07-05T03:12:15;20.30;90.80
913;DHT22;443;51.448;7.028;2022-07-05T03:14:42;20.20;90.90
913;DHT22;443;51.448;7.028;2022-07-05T03:17:09;20.20;91.10
913;DHT22;443;51.448;7.028;2022-07-05T03:19:36;20.30;91.10
913;DHT22;443;51.448;7.028;2022-07-05T03:22:03;20.30;91.00
913;DHT22;443;51.448;7.028;2022-07-05T03:24:31;20.20;91.10
913;DHT22;443;51.448;7.028;2022-07-05T03:26:58;20.20;90.80
913;DHT22;443;51.448;7.028;2022-07-05T03:29:25;20.20;90.80
913;DHT22;443;51.448;7.028;2022-07-05T03:31:52;20.30;91.20
913;DHT22;443;51.448;7.028;2022-07-05T03:34:19;20.30;91.30
913;DHT22;443;51.448;7.028;2022-07-05T03:36:46;20.30;91.10
913;DHT22;443;51.448;7.028;2022-07-05T03:39:13;20.20;90.90
913;DHT22;443;51.448;7.028;2022-07-05T03:41:41;20.20;91.00
913;DHT22;443;51.448;7.028;2022-07-05T03:44:07;20.20;91.40
913;DHT22;443;51.448;7.028;2022-07-05T03:46:34;20.20;91.30
913;DHT22;443;51.448;7.028;2022-07-05T03:49:01;20.20;91.00
913;DHT22;443;51.448;7.028;2022-07-05T03:51:28;20.20;91.20
913;DHT22;443;51.448;7.028;2022-07-05T03:53:55;20.20;91.10
913;DHT22;443;51.448;7.028;2022-07-05T03:56:22;20.20;91.00
913;DHT22;443;51.448;7.028;2022-07-05T03:58:52;20.20;91.50
913;DHT22;443;51.448;7.028;2022-07-05T04:01:18;20.20;90.90
913;DHT22;443;51.448;7.028;2022-07-05T04:03:45;20.20;91.30
913;DHT22;443;51.448;7.028;2022-07-05T04:06:13;20.20;91.50
913;DHT22;443;51.448;7.028;2022-07-05T04:08:40;20.20;91.10
913;DHT22;443;51.448;7.028;2022-07-05T04:11:07;20.10;90.90
913;DHT22;443;51.448;7.028;2022-07-05T04:13:34;20.20;91.20
913;DHT22;443;51.448;7.028;2022-07-05T04:16:03;20.10;91.20
913;DHT22;443;51.448;7.028;2022-07-05T04:18:30;20.10;91.20
913;DHT22;443;51.448;7.028;2022-07-05T04:20:57;20.10;90.70
913;DHT22;443;51.448;7.028;2022-07-05T04:23:24;20.10;90.90
913;DHT22;443;51.448;7.028;2022-07-05T04:25:51;20.20;91.20
913;DHT22;443;51.448;7.028;2022-07-05T04:28:18;20.10;90.90
913;DHT22;443;51.448;7.028;2022-07-05T04:30:45;20.10;91.10
913;DHT22;443;51.448;7.028;2022-07-05T04:33:13;20.10;90.90
913;DHT22;443;51.448;7.028;2022-07-05T04:35:40;20.00;90.70
913;DHT22;443;51.448;7.028;2022-07-05T04:38:07;20.00;90.60
913;DHT22;443;51.448;7.028;2022-07-05T04:40:34;20.00;91.20
913;DHT22;443;51.448;7.028;2022-07-05T04:43:00;20.00;90.60
913;DHT22;443;51.448;7.028;2022-07-05T04:45:27;20.00;91.10
913;DHT22;443;51.448;7.028;2022-07-05T04:47:54;20.00;91.10
913;DHT22;443;51.448;7.028;2022-07-05T04:50:22;20.00;90.70
913;DHT22;443;51.448;7.028;2022-07-05T04:52:49;20.00;90.80
913;DHT22;443;51.448;7.028;2022-07-05T04:55:16;20.00;91.10
913;DHT22;443;51.448;7.028;2022-07-05T04:57:43;20.00;90.90
913;DHT22;443;51.448;7.028;2022-07-05T05:00:12;20.10;91.10
913;DHT22;443;51.448;7.028;2022-07-05T05:02:40;20.10;91.10
913;DHT22;443;51.448;7.028;2022-07-05T05:05:08;20.10;91.30
913;DHT22;443;51.448;7.028;2022-07-05T05:07:36;20.10;91.40
913;DHT22;443;51.448;7.028;2022-07-05T05:10:06;20.20;91.30
913;DHT22;443;51.448;7.028;2022-07-05T05:12:33;20.20;90.90
913;DHT22;443;51.448;7.028;2022-07-05T05:14:59;20.10;91.10
913;DHT22;443;51.448;7.028;2022-07-05T05:17:34;20.00;90.40
913;DHT22;443;51.448;7.028;2022-07-05T05:20:01;20.10;90.90
913;DHT22;443;51.448;7.028;2022-07-05T05:22:28;20.10;91.00
913;DHT22;443;51.448;7.028;2022-07-05T05:24:56;20.10;90.80
913;DHT22;443;51.448;7.028;2022-07-05T05:27:23;20.10;90.70
913;DHT22;443;51.448;7.028;2022-07-05T05:29:50;20.10;90.50
913;DHT22;443;51.448;7.028;2022-07-05T05:32:16;20.10;90.40
913;DHT22;443;51.448;7.028;2022-07-05T05:34:43;20.20;91.00
913;DHT22;443;51.448;7.028;2022-07-05T05:37:10;20.20;90.60
913;DHT22;443;51.448;7.028;2022-07-05T05:39:37;20.20;90.70
913;DHT22;443;51.448;7.028;2022-07-05T05:42:06;20.20;90.50
913;DHT22;443;51.448;7.028;2022-07-05T05:44:33;20.20;90.80
913;DHT22;443;51.448;7.028;2022-07-05T05:47:00;20.20;90.70
913;DHT22;443;51.448;7.028;2022-07-05T05:49:27;20.20;90.60
913;DHT22;443;51.448;7.028;2022-07-05T05:51:53;20.30;91.20
913;DHT22;443;51.448;7.028;2022-07-05T05:54:20;20.30;90.80
913;DHT22;443;51.448;7.028;2022-07-05T05:56:47;20.30;90.80
913;DHT22;443;51.448;7.028;2022-07-05T05:59:15;20.30;91.20
913;DHT22;443;51.448;7.028;2022-07-05T06:01:42;20.40;91.30
913;DHT22;443;51.448;7.028;2022-07-05T06:04:09;20.40;91.60
913;DHT22;443;51.448;7.028;2022-07-05T06:06:36;20.40;90.90
913;DHT22;443;51.448;7.028;2022-07-05T06:09:03;20.40;91.20
913;DHT22;443;51.448;7.028;2022-07-05T06:11:30;20.40;91.00
913;DHT22;443;51.448;7.028;2022-07-05T06:13:56;20.40;90.90
913;DHT22;443;51.448;7.028;2022-07-05T06:16:25;20.40;91.10
913;DHT22;443;51.448;7.028;2022-07-05T06:18:51;20.40;91.10
913;DHT22;443;51.448;7.028;2022-07-05T06:21:18;20.40;91.10
913;DHT22;443;51.448;7.028;2022-07-05T06:23:45;20.50;90.70
913;DHT22;443;51.448;7.028;2022-07-05T06:26:12;20.40;91.20
913;DHT22;443;51.448;7.028;2022-07-05T06:28:39;20.40;91.10
913;DHT22;443;51.448;7.028;2022-07-05T06:31:06;20.40;91.10
913;DHT22;443;51.448;7.028;2022-07-05T06:33:35;20.50;90.60
913;DHT22;443;51.448;7.028;2022-07-05T06:36:02;20.50;91.00
913;DHT22;443;51.448;7.028;2022-07-05T06:38:29;20.50;91.10
913;DHT22;443;51.448;7.028;2022-07-05T06:40:56;20.40;91.20
913;DHT22;443;51.448;7.028;2022-07-05T06:43:23;20.50;91.00
913;DHT22;443;51.448;7.028;2022-07-05T06:45:51;20.50;90.80
913;DHT22;443;51.448;7.028;2022-07-05T06:48:18;20.50;90.90
913;DHT22;443;51.448;7.028;2022-07-05T06:50:46;20.50;90.90
913;DHT22;443;51.448;7.028;2022-07-05T06:53:13;20.50;91.30
913;DHT22;443;51.448;7.028;2022-07-05T06:55:40;20.50;91.00
913;DHT22;443;51.448;7.028;2022-07-05T06:58:10;20.50;90.90
913;DHT22;443;51.448;7.028;2022-07-05T07:00:38;20.50;90.90
913;DHT22;443;51.448;7.028;2022-07-05T07:03:05;20.50;91.00
913;DHT22;443;51.448;7.028;2022-07-05T07:05:32;20.50;91.00
913;DHT22;443;51.448;7.028;2022-07-05T07:08:00;20.50;91.00
913;DHT22;443;51.448;7.028;2022-07-05T07:10:44;20.50;90.80
913;DHT22;443;51.448;7.028;2022-07-05T07:13:11;20.50;90.80
913;DHT22;443;51.448;7.028;2022-07-05T07:15:39;20.50;90.90
913;DHT22;443;51.448;7.028;2022-07-05T07:18:06;20.60;91.00
913;DHT22;443;51.448;7.028;2022-07-05T07:20:33;20.60;91.00
913;DHT22;443;51.448;7.028;2022-07-05T07:23:01;20.60;91.00
913;DHT22;443;51.448;7.028;2022-07-05T07:25:28;20.50;91.00
913;DHT22;443;51.448;7.028;2022-07-05T07:27:55;20.60;90.90
913;DHT22;443;51.448;7.028;2022-07-05T07:30:23;20.60;90.90
913;DHT22;443;51.448;7.028;2022-07-05T07:32:51;20.60;90.90
913;DHT22;443;51.448;7.028;2022-07-05T07:35:18;20.60;90.90
913;DHT22;443;51.448;7.028;2022-07-05T07:37:45;20.60;90.90
913;DHT22;443;51.448;7.028;2022-07-05T07:40:13;20.60;90.90
913;DHT22;443;51.448;7.028;2022-07-05T07:42:40;20.60;90.90
913;DHT22;443;51.448;7.028;2022-07-05T07:45:08;20.60;90.90
913;DHT22;443;51.448;7.028;2022-07-05T07:47:36;20.60;90.90
913;DHT22;443;51.448;7.028;2022-07-05T07:50:04;20.60;90.90
913;DHT22;443;51.448;7.028;2022-07-05T07:52:31;20.60;90.90
913;DHT22;443;51.448;7.028;2022-07-05T07:54:59;20.60;90.90
913;DHT22;443;51.448;7.028;2022-07-05T07:57:28;20.60;91.20
913;DHT22;443;51.448;7.028;2022-07-05T07:59:54;20.60;90.90
913;DHT22;443;51.448;7.028;2022-07-05T08:02:21;20.60;90.80
913;DHT22;443;51.448;7.028;2022-07-05T08:04:49;20.60;90.90
913;DHT22;443;51.448;7.028;2022-07-05T08:07:17;20.60;91.00
913;DHT22;443;51.448;7.028;2022-07-05T08:09:45;20.60;91.00
913;DHT22;443;51.448;7.028;2022-07-05T08:12:12;20.60;90.90
913;DHT22;443;51.448;7.028;2022-07-05T08:14:40;20.60;91.00
913;DHT22;443;51.448;7.028;2022-07-05T08:17:07;20.60;91.00
913;DHT22;443;51.448;7.028;2022-07-05T08:19:34;20.60;91.00
913;DHT22;443;51.448;7.028;2022-07-05T08:22:19;20.60;91.30
913;DHT22;443;51.448;7.028;2022-07-05T08:24:46;20.60;91.00
913;DHT22;443;51.448;7.028;2022-07-05T08:27:13;20.60;91.00
913;DHT22;443;51.448;7.028;2022-07-05T08:29:41;20.60;91.30
913;DHT22;443;51.448;7.028;2022-07-05T08:32:09;20.60;91.00
913;DHT22;443;51.448;7.028;2022-07-05T08:34:36;20.60;91.00
913;DHT22;443;51.448;7.028;2022-07-05T08:37:04;20.60;91.00
913;DHT22;443;51.448;7.028;2022-07-05T08:39:31;20.60;91.40
913;DHT22;443;51.448;7.028;2022-07-05T08:41:59;20.60;91.40
913;DHT22;443;51.448;7.028;2022-07-05T08:44:27;20.60;91.00
913;DHT22;443;51.448;7.028;2022-07-05T08:46:57;20.60;91.00
913;DHT22;443;51.448;7.028;2022-07-05T08:49:26;20.60;91.00
913;DHT22;443;51.448;7.028;2022-07-05T08:51:54;20.60;91.00
913;DHT22;443;51.448;7.028;2022-07-05T08:54:22;20.60;91.30
913;DHT22;443;51.448;7.028;2022-07-05T08:56:50;20.60;91.30
913;DHT22;443;51.448;7.028;2022-07-05T08:59:17;20.70;91.00
913;DHT22;443;51.448;7.028;2022-07-05T09:01:45;20.60;90.90
913;DHT22;443;51.448;7.028;2022-07-05T09:04:16;20.70;90.90
913;DHT22;443;51.448;7.028;2022-07-05T09:06:46;20.70;91.20
913;DHT22;443;51.448;7.028;2022-07-05T09:09:17;20.70;90.90
913;DHT22;443;51.448;7.028;2022-07-05T09:11:44;20.70;91.00
913;DHT22;443;51.448;7.028;2022-07-05T09:14:20;20.60;90.90
913;DHT22;443;51.448;7.028;2022-07-05T09:16:47;20.60;90.90
913;DHT22;443;51.448;7.028;2022-07-05T09:19:15;20.70;91.00
913;DHT22;443;51.448;7.028;2022-07-05T09:21:42;20.70;91.30
913;DHT22;443;51.448;7.028;2022-07-05T09:24:10;20.70;91.00
913;DHT22;443;51.448;7.028;2022-07-05T09:26:38;20.60;90.90
913;DHT22;443;51.448;7.028;2022-07-05T09:29:07;20.60;91.00
913;DHT22;443;51.448;7.028;2022-07-05T09:31:35;20.70;91.00
913;DHT22;443;51.448;7.028;2022-07-05T09:34:07;20.70;91.00
913;DHT22;443;51.448;7.028;2022-07-05T09:36:57;20.70;91.00
913;DHT22;443;51.448;7.028;2022-07-05T09:39:38;20.70;90.90
913;DHT22;443;51.448;7.028;2022-07-05T09:42:16;20.70;90.80
913;DHT22;443;51.448;7.028;2022-07-05T09:44:47;20.80;90.90
913;DHT22;443;51.448;7.028;2022-07-05T09:47:15;20.70;90.90
913;DHT22;443;51.448;7.028;2022-07-05T09:49:43;20.70;90.90
913;DHT22;443;51.448;7.028;2022-07-05T09:52:25;20.70;90.90
913;DHT22;443;51.448;7.028;2022-07-05T09:55:01;20.70;91.30
913;DHT22;443;51.448;7.028;2022-07-05T09:57:28;20.70;91.20
913;DHT22;443;51.448;7.028;2022-07-05T09:59:58;20.70;90.90
913;DHT22;443;51.448;7.028;2022-07-05T10:02:34;20.70;90.80
913;DHT22;443;51.448;7.028;2022-07-05T10:05:12;20.70;90.80
913;DHT22;443;51.448;7.028;2022-07-05T10:07:44;20.70;90.70
913;DHT22;443;51.448;7.028;2022-07-05T10:10:12;20.70;90.70
913;DHT22;443;51.448;7.028;2022-07-05T10:12:41;20.70;90.80
913;DHT22;443;51.448;7.028;2022-07-05T10:15:11;20.70;90.80
913;DHT22;443;51.448;7.028;2022-07-05T10:17:41;20.70;90.80
913;DHT22;443;51.448;7.028;2022-07-05T10:20:14;20.70;90.90
913;DHT22;443;51.448;7.028;2022-07-05T10:22:44;20.70;90.80
913;DHT22;443;51.448;7.028;2022-07-05T10:25:13;20.70;90.80
913;DHT22;443;51.448;7.028;2022-07-05T10:27:40;20.80;90.80
913;DHT22;443;51.448;7.028;2022-07-05T10:30:10;20.80;90.80
913;DHT22;443;51.448;7.028;2022-07-05T10:32:38;20.80;90.80
913;DHT22;443;51.448;7.028;2022-07-05T10:35:07;20.80;91.10
913;DHT22;443;51.448;7.028;2022-07-05T10:37:35;20.80;90.70
913;DHT22;443;51.448;7.028;2022-07-05T10:40:05;20.80;90.80
913;DHT22;443;51.448;7.028;2022-07-05T10:42:37;20.80;90.80
913;DHT22;443;51.448;7.028;2022-07-05T10:45:23;20.80;90.80
913;DHT22;443;51.448;7.028;2022-07-05T10:48:12;20.80;90.80
913;DHT22;443;51.448;7.028;2022-07-05T10:50:43;20.80;90.80
913;DHT22;443;51.448;7.028;2022-07-05T10:53:10;20.80;90.80
913;DHT22;443;51.448;7.028;2022-07-05T10:55:49;20.70;90.80
913;DHT22;443;51.448;7.028;2022-07-05T10:58:30;20.80;90.80
913;DHT22;443;51.448;7.028;2022-07-05T11:01:32;20.80;91.10
913;DHT22;443;51.448;7.028;2022-07-05T11:04:21;20.80;90.70
913;DHT22;443;51.448;7.028;2022-07-05T11:06:52;20.80;90.70
913;DHT22;443;51.448;7.028;2022-07-05T11:09:20;20.80;90.70
913;DHT22;443;51.448;7.028;2022-07-05T11:12:04;20.80;90.80
913;DHT22;443;51.448;7.028;2022-07-05T11:14:47;20.80;91.10
913;DHT22;443;51.448;7.028;2022-07-05T11:17:23;20.80;90.70
913;DHT22;443;51.448;7.028;2022-07-05T11:20:13;20.80;90.70
913;DHT22;443;51.448;7.028;2022-07-05T11:22:42;20.80;90.80
913;DHT22;443;51.448;7.028;2022-07-05T11:25:28;20.80;90.70
913;DHT22;443;51.448;7.028;2022-07-05T11:28:24;20.80;90.70
913;DHT22;443;51.448;7.028;2022-07-05T11:30:55;20.80;90.70
913;DHT22;443;51.448;7.028;2022-07-05T11:33:34;20.80;90.60
913;DHT22;443;51.448;7.028;2022-07-05T11:36:02;20.80;90.60
913;DHT22;443;51.448;7.028;2022-07-05T11:38:30;20.80;91.00
913;DHT22;443;51.448;7.028;2022-07-05T11:41:11;20.80;90.70
913;DHT22;443;51.448;7.028;2022-07-05T11:43:40;20.80;90.70
913;DHT22;443;51.448;7.028;2022-07-05T11:46:07;20.80;90.70
913;DHT22;443;51.448;7.028;2022-07-05T11:48:35;20.80;90.70
913;DHT22;443;51.448;7.028;2022-07-05T11:51:12;20.80;90.70
913;DHT22;443;51.448;7.028;2022-07-05T11:53:40;20.80;90.70
913;DHT22;443;51.448;7.028;2022-07-05T11:56:09;20.80;90.70
913;DHT22;443;51.448;7.028;2022-07-05T11:58:36;20.80;90.70
913;DHT22;443;51.448;7.028;2022-07-05T12:01:04;20.80;90.70
913;DHT22;443;51.448;7.028;2022-07-05T12:03:33;20.80;91.00
913;DHT22;443;51.448;7.028;2022-07-05T12:06:10;20.80;90.60
913;DHT22;443;51.448;7.028;2022-07-05T12:08:38;20.90;90.60
913;DHT22;443;51.448;7.028;2022-07-05T12:11:05;20.90;90.90
913;DHT22;443;51.448;7.028;2022-07-05T12:13:50;20.90;90.60
913;DHT22;443;51.448;7.028;2022-07-05T12:16:18;20.90;90.90
913;DHT22;443;51.448;7.028;2022-07-05T12:18:52;20.90;90.60
913;DHT22;443;51.448;7.028;2022-07-05T12:21:20;20.90;90.60
913;DHT22;443;51.448;7.028;2022-07-05T12:23:48;20.90;90.60
913;DHT22;443;51.448;7.028;2022-07-05T12:26:16;20.90;90.90
913;DHT22;443;51.448;7.028;2022-07-05T12:28:44;20.90;90.50
913;DHT22;443;51.448;7.028;2022-07-05T12:31:15;20.90;90.90
913;DHT22;443;51.448;7.028;2022-07-05T12:33:43;20.90;90.50
913;DHT22;443;51.448;7.028;2022-07-05T12:36:11;20.90;90.50
913;DHT22;443;51.448;7.028;2022-07-05T12:38:39;21.00;90.50
913;DHT22;443;51.448;7.028;2022-07-05T12:41:06;21.00;90.50
913;DHT22;443;51.448;7.028;2022-07-05T12:43:32;21.00;90.80
913;DHT22;443;51.448;7.028;2022-07-05T12:46:00;21.00;90.50
913;DHT22;443;51.448;7.028;2022-07-05T12:48:30;21.00;90.50
913;DHT22;443;51.448;7.028;2022-07-05T12:50:59;21.00;90.50
913;DHT22;443;51.448;7.028;2022-07-05T12:53:27;21.00;90.50
913;DHT22;443;51.448;7.028;2022-07-05T12:56:13;21.00;90.40
913;DHT22;443;51.448;7.028;2022-07-05T12:58:58;21.00;90.50
913;DHT22;443;51.448;7.028;2022-07-05T13:01:28;21.00;90.50
913;DHT22;443;51.448;7.028;2022-07-05T13:03:59;20.90;90.40
913;DHT22;443;51.448;7.028;2022-07-05T13:06:58;20.90;90.40
913;DHT22;443;51.448;7.028;2022-07-05T13:09:33;21.00;90.50
913;DHT22;443;51.448;7.028;2022-07-05T13:12:08;21.00;90.50
913;DHT22;443;51.448;7.028;2022-07-05T13:14:36;21.00;90.50
913;DHT22;443;51.448;7.028;2022-07-05T13:17:03;21.00;90.50
913;DHT22;443;51.448;7.028;2022-07-05T13:19:30;21.00;90.40
913;DHT22;443;51.448;7.028;2022-07-05T13:21:58;21.10;90.40
913;DHT22;443;51.448;7.028;2022-07-05T13:24:25;21.10;90.40
913;DHT22;443;51.448;7.028;2022-07-05T13:26:53;21.10;90.40
913;DHT22;443;51.448;7.028;2022-07-05T13:29:20;21.10;90.40
913;DHT22;443;51.448;7.028;2022-07-05T13:31:47;21.00;90.30
913;DHT22;443;51.448;7.028;2022-07-05T13:34:13;21.10;90.40
913;DHT22;443;51.448;7.028;2022-07-05T13:36:40;21.00;90.30
913;DHT22;443;51.448;7.028;2022-07-05T13:39:09;21.00;90.30
913;DHT22;443;51.448;7.028;2022-07-05T13:41:35;21.00;90.40
913;DHT22;443;51.448;7.028;2022-07-05T13:44:02;21.10;90.30
913;DHT22;443;51.448;7.028;2022-07-05T13:46:29;21.10;90.30
913;DHT22;443;51.448;7.028;2022-07-05T13:48:56;21.20;90.20
913;DHT22;443;51.448;7.028;2022-07-05T13:51:23;21.20;90.20
913;DHT22;443;51.448;7.028;2022-07-05T13:53:50;21.20;90.10
913;DHT22;443;51.448;7.028;2022-07-05T13:56:18;21.30;90.00
913;DHT22;443;51.448;7.028;2022-07-05T13:58:45;21.30;90.00
913;DHT22;443;51.448;7.028;2022-07-05T14:01:12;21.30;89.80
913;DHT22;443;51.448;7.028;2022-07-05T14:03:39;21.30;90.10
913;DHT22;443;51.448;7.028;2022-07-05T14:06:06;21.30;90.10
913;DHT22;443;51.448;7.028;2022-07-05T14:08:33;21.30;90.00
913;DHT22;443;51.448;7.028;2022-07-05T14:11:00;21.40;89.80
913;DHT22;443;51.448;7.028;2022-07-05T14:13:29;21.50;89.60
913;DHT22;443;51.448;7.028;2022-07-05T14:15:56;21.50;89.50
913;DHT22;443;51.448;7.028;2022-07-05T14:18:23;21.50;89.50
913;DHT22;443;51.448;7.028;2022-07-05T14:20:51;21.40;89.50
913;DHT22;443;51.448;7.028;2022-07-05T14:23:18;21.40;90.20
913;DHT22;443;51.448;7.028;2022-07-05T14:25:45;21.30;89.80
913;DHT22;443;51.448;7.028;2022-07-05T14:28:12;21.30;89.80
913;DHT22;443;51.448;7.028;2022-07-05T14:30:42;21.30;90.20
913;DHT22;443;51.448;7.028;2022-07-05T14:33:09;21.30;89.90
913;DHT22;443;51.448;7.028;2022-07-05T14:35:38;21.30;90.00
913;DHT22;443;51.448;7.028;2022-07-05T14:38:06;21.20;90.00
913;DHT22;443;51.448;7.028;2022-07-05T14:40:33;21.20;90.00
913;DHT22;443;51.448;7.028;2022-07-05T14:43:02;21.20;90.00
913;DHT22;443;51.448;7.028;2022-07-05T14:45:29;21.20;90.00
913;DHT22;443;51.448;7.028;2022-07-05T14:47:58;21.20;90.00
913;DHT22;443;51.448;7.028;2022-07-05T14:50:25;21.20;90.10
913;DHT22;443;51.448;7.028;2022-07-05T14:52:52;21.20;90.10
913;DHT22;443;51.448;7.028;2022-07-05T14:55:19;21.20;90.10
913;DHT22;443;51.448;7.028;2022-07-05T14:57:46;21.20;90.00
913;DHT22;443;51.448;7.028;2022-07-05T15:00:14;21.20;90.00
913;DHT22;443;51.448;7.028;2022-07-05T15:02:42;21.20;90.00
913;DHT22;443;51.448;7.028;2022-07-05T15:05:10;21.20;90.00
913;DHT22;443;51.448;7.028;2022-07-05T15:07:38;21.30;90.00
913;DHT22;443;51.448;7.028;2022-07-05T15:10:07;21.30;90.00
913;DHT22;443;51.448;7.028;2022-07-05T15:12:34;21.20;89.80
913;DHT22;443;51.448;7.028;2022-07-05T15:15:01;21.20;89.90
913;DHT22;443;51.448;7.028;2022-07-05T15:17:28;21.30;89.90
913;DHT22;443;51.448;7.028;2022-07-05T15:19:54;21.30;89.80
913;DHT22;443;51.448;7.028;2022-07-05T15:22:23;21.30;90.00
913;DHT22;443;51.448;7.028;2022-07-05T15:24:51;21.30;90.00
913;DHT22;443;51.448;7.028;2022-07-05T15:27:19;21.20;90.00
913;DHT22;443;51.448;7.028;2022-07-05T15:29:46;21.20;90.00
913;DHT22;443;51.448;7.028;2022-07-05T15:32:13;21.20;90.10
913;DHT22;443;51.448;7.028;2022-07-05T15:34:40;21.20;90.10
913;DHT22;443;51.448;7.028;2022-07-05T15:37:06;21.10;90.10
913;DHT22;443;51.448;7.028;2022-07-05T15:39:35;21.20;90.20
913;DHT22;443;51.448;7.028;2022-07-05T15:42:03;21.10;90.20
913;DHT22;443;51.448;7.028;2022-07-05T15:44:30;21.20;90.20
913;DHT22;443;51.448;7.028;2022-07-05T15:46:57;21.10;90.20
913;DHT22;443;51.448;7.028;2022-07-05T15:49:29;21.20;90.20
913;DHT22;443;51.448;7.028;2022-07-05T15:51:58;21.10;90.20
913;DHT22;443;51.448;7.028;2022-07-05T15:54:25;21.10;90.30
913;DHT22;443;51.448;7.028;2022-07-05T15:56:53;21.10;90.30
913;DHT22;443;51.448;7.028;2022-07-05T15:59:21;21.10;90.30
913;DHT22;443;51.448;7.028;2022-07-05T16:01:48;21.10;90.70
913;DHT22;443;51.448;7.028;2022-07-05T16:04:14;21.10;90.30
913;DHT22;443;51.448;7.028;2022-07-05T16:06:42;21.10;90.40
913;DHT22;443;51.448;7.028;2022-07-05T16:09:09;21.10;90.40
913;DHT22;443;51.448;7.028;2022-07-05T16:11:35;21.10;90.40
913;DHT22;443;51.448;7.028;2022-07-05T16:14:04;21.10;90.50
913;DHT22;443;51.448;7.028;2022-07-05T16:16:30;21.00;90.40
913;DHT22;443;51.448;7.028;2022-07-05T16:18:57;21.00;90.40
913;DHT22;443;51.448;7.028;2022-07-05T16:21:24;21.00;90.40
913;DHT22;443;51.448;7.028;2022-07-05T16:23:51;21.10;90.50
913;DHT22;443;51.448;7.028;2022-07-05T16:26:20;21.10;90.50
913;DHT22;443;51.448;7.028;2022-07-05T16:28:48;21.00;90.40
913;DHT22;443;51.448;7.028;2022-07-05T16:31:17;21.00;90.50
913;DHT22;443;51.448;7.028;2022-07-05T16:33:45;21.00;90.50
913;DHT22;443;51.448;7.028;2022-07-05T16:36:14;21.00;90.50
913;DHT22;443;51.448;7.028;2022-07-05T16:38:42;21.00;90.50
913;DHT22;443;51.448;7.028;2022-07-05T16:41:10;21.10;90.50
913;DHT22;443;51.448;7.028;2022-07-05T16:43:38;21.00;90.40